sensor_id;sensor_type;location;lat;lon;timestamp;temperature;humidity
1455;DHT22;721;48.168;12.818;2023-06-14T00:00:41;15.20;1.00
1455;DHT22;721;48.168;12.818;2023-06-14T00:03:08;15.00;1.00
1455;DHT22;721;48.168;12.818;2023-06-14T00:05:37;14.80;1.00
1455;DHT22;721;48.168;12.818;2023-06-14T00:08:09;14.70;1.00
1455;DHT22;721;48.168;12.818;2023-06-14T00:10:36;14.60;1.00
1455;DHT22;721;48.168;12.818;2023-06-14T00:13:05;14.70;1.00
1455;DHT22;721;48.168;12.818;2023-06-14T00:15:33;14.60;1.00
1455;DHT22;721;48.168;12.818;2023-06-14T00:18:00;14.60;1.00
1455;DHT22;721;48.168;12.818;2023-06-14T00:20:27;14.80;1.00
1455;DHT22;721;48.168;12.818;2023-06-14T00:22:54;14.70;1.00
1455;DHT22;721;48.168;12.818;2023-06-14T00:25:22;14.90;1.00
1455;DHT22;721;48.168;12.818;2023-06-14T00:27:49;14.60;1.00
1455;DHT22;721;48.168;12.818;2023-06-14T00:30:17;14.70;1.00
1455;DHT22;721;48.168;12.818;2023-06-14T00:32:44;14.80;1.00
1455;DHT22;721;48.168;12.818;2023-06-14T00:35:11;14.80;1.00
1455;DHT22;721;48.168;12.818;2023-06-14T00:37:38;14.80;1.00
1455;DHT22;721;48.168;12.818;2023-06-14T00:40:06;14.90;1.00
1455;DHT22;721;48.168;12.818;2023-06-14T00:42:33;14.90;1.00
1455;DHT22;721;48.168;12.818;2023-06-14T00:45:00;14.90;1.00
1455;DHT22;721;48.168;12.818;2023-06-14T00:47:28;14.90;1.00
1455;DHT22;721;48.168;12.818;2023-06-14T00:49:55;14.90;1.00
1455;DHT22;721;48.168;12.818;2023-06-14T00:52:23;14.80;1.00
1455;DHT22;721;48.168;12.818;2023-06-14T00:54:50;14.80;1.00
1455;DHT22;721;48.168;12.818;2023-06-14T00:57:17;14.80;1.00
1455;DHT22;721;48.168;12.818;2023-06-14T00:59:46;14.80;1.00
1455;DHT22;721;48.168;12.818;2023-06-14T01:02:13;14.70;1.00
1455;DHT22;721;48.168;12.818;2023-06-14T01:04:44;14.70;1.00
1455;DHT22;721;48.168;12.818;2023-06-14T01:07:21;14.60;1.00
1455;DHT22;721;48.168;12.818;2023-06-14T01:10:03;14.50;1.00
1455;DHT22;721;48.168;12.818;2023-06-14T01:12:37;14.40;1.00
1455;DHT22;721;48.168;12.818;2023-06-14T01:15:06;14.10;1.00
1455;DHT22;721;48.168;12.818;2023-06-14T01:17:34;14.00;1.00
1455;DHT22;721;48.168;12.818;2023-06-14T01:20:03;13.90;1.00
1455;DHT22;721;48.168;12.818;2023-06-14T01:22:35;13.90;1.00
1455;DHT22;721;48.168;12.818;2023-06-14T01:25:04;13.90;1.00
1455;DHT22;721;48.168;12.818;2023-06-14T01:27:32;13.70;1.00
1455;DHT22;721;48.168;12.818;2023-06-14T01:29:58;13.60;1.00
1455;DHT22;721;48.168;12.818;2023-06-14T01:32:30;13.60;1.00
1455;DHT22;721;48.168;12.818;2023-06-14T01:34:57;13.60;1.00
1455;DHT22;721;48.168;12.818;2023-06-14T01:37:24;13.60;1.00
1455;DHT22;721;48.168;12.818;2023-06-14T01:39:52;13.60;1.00
1455;DHT22;721;48.168;12.818;2023-06-14T01:42:21;13.60;1.00
1455;DHT22;721;48.168;12.818;2023-06-14T01:44:52;13.60;1.00
1455;DHT22;721;48.168;12.818;2023-06-14T01:47:20;13.70;1.00
1455;DHT22;721;48.168;12.818;2023-06-14T01:49:47;13.50;1.00
1455;DHT22;721;48.168;12.818;2023-06-14T01:52:14;13.50;1.00
1455;DHT22;721;48.168;12.818;2023-06-14T01:54:40;13.70;1.00
1455;DHT22;721;48.168;12.818;2023-06-14T01:57:08;13.40;1.00
1455;DHT22;721;48.168;12.818;2023-06-14T01:59:37;13.40;1.00
1455;DHT22;721;48.168;12.818;2023-06-14T02:02:04;13.40;1.00
1455;DHT22;721;48.168;12.818;2023-06-14T02:04:31;13.40;1.00
1455;DHT22;721;48.168;12.818;2023-06-14T02:06:58;13.40;1.00
1455;DHT22;721;48.168;12.818;2023-06-14T02:09:24;13.40;1.00
1455;DHT22;721;48.168;12.818;2023-06-14T02:11:51;13.40;1.00
1455;DHT22;721;48.168;12.818;2023-06-14T02:14:18;13.20;1.00
1455;DHT22;721;48.168;12.818;2023-06-14T02:16:46;13.50;1.00
1455;DHT22;721;48.168;12.818;2023-06-14T02:19:14;13.50;1.00
1455;DHT22;721;48.168;12.818;2023-06-14T02:21:41;13.10;1.00
1455;DHT22;721;48.168;12.818;2023-06-14T02:24:08;12.90;1.00
1455;DHT22;721;48.168;12.818;2023-06-14T02:26:35;12.80;1.00
1455;DHT22;721;48.168;12.818;2023-06-14T02:29:03;12.70;1.00
1455;DHT22;721;48.168;12.818;2023-06-14T02:31:31;12.70;1.00
1455;DHT22;721;48.168;12.818;2023-06-14T02:33:59;12.60;1.00
1455;DHT22;721;48.168;12.818;2023-06-14T02:36:26;12.70;1.00
1455;DHT22;721;48.168;12.818;2023-06-14T02:38:52;12.70;1.00
1455;DHT22;721;48.168;12.818;2023-06-14T02:41:19;12.70;1.00
1455;DHT22;721;48.168;12.818;2023-06-14T02:43:46;12.80;1.00
1455;DHT22;721;48.168;12.818;2023-06-14T02:46:13;12.70;1.00
1455;DHT22;721;48.168;12.818;2023-06-14T02:48:40;12.70;1.00
1455;DHT22;721;48.168;12.818;2023-06-14T02:51:08;12.70;1.00
1455;DHT22;721;48.168;12.818;2023-06-14T02:53:35;12.80;1.00
1455;DHT22;721;48.168;12.818;2023-06-14T02:56:02;12.80;1.00
1455;DHT22;721;48.168;12.818;2023-06-14T02:58:29;12.80;1.00
1455;DHT22;721;48.168;12.818;2023-06-14T03:00:56;12.70;1.00
1455;DHT22;721;48.168;12.818;2023-06-14T03:03:23;12.70;1.00
1455;DHT22;721;48.168;12.818;2023-06-14T03:05:50;12.70;1.00
1455;DHT22;721;48.168;12.818;2023-06-14T03:08:18;12.80;1.00
1455;DHT22;721;48.168;12.818;2023-06-14T03:10:46;12.90;1.00
1455;DHT22;721;48.168;12.818;2023-06-14T03:13:13;12.90;1.00
1455;DHT22;721;48.168;12.818;2023-06-14T03:15:39;12.90;1.00
1455;DHT22;721;48.168;12.818;2023-06-14T03:18:07;12.90;1.00
1455;DHT22;721;48.168;12.818;2023-06-14T03:20:34;12.80;1.00
1455;DHT22;721;48.168;12.818;2023-06-14T03:23:02;12.80;1.00
1455;DHT22;721;48.168;12.818;2023-06-14T03:25:31;12.70;1.00
1455;DHT22;721;48.168;12.818;2023-06-14T03:28:04;12.70;1.00
1455;DHT22;721;48.168;12.818;2023-06-14T03:30:31;12.70;1.00
1455;DHT22;721;48.168;12.818;2023-06-14T03:32:58;12.70;1.00
1455;DHT22;721;48.168;12.818;2023-06-14T03:35:26;12.70;1.00
1455;DHT22;721;48.168;12.818;2023-06-14T03:37:53;12.70;1.00
1455;DHT22;721;48.168;12.818;2023-06-14T03:40:21;12.80;1.00
1455;DHT22;721;48.168;12.818;2023-06-14T03:42:52;12.90;1.00
1455;DHT22;721;48.168;12.818;2023-06-14T03:45:19;12.80;1.00
1455;DHT22;721;48.168;12.818;2023-06-14T03:47:46;12.90;1.00
1455;DHT22;721;48.168;12.818;2023-06-14T03:50:13;12.90;1.00
1455;DHT22;721;48.168;12.818;2023-06-14T03:52:40;12.90;1.00
1455;DHT22;721;48.168;12.818;2023-06-14T03:55:09;12.90;1.00
1455;DHT22;721;48.168;12.818;2023-06-14T03:57:38;12.90;1.00
1455;DHT22;721;48.168;12.818;2023-06-14T04:00:08;12.90;1.00
1455;DHT22;721;48.168;12.818;2023-06-14T04:02:35;12.90;1.00
1455;DHT22;721;48.168;12.818;2023-06-14T04:05:03;12.90;1.00
1455;DHT22;721;48.168;12.818;2023-06-14T04:07:31;12.90;1.00
1455;DHT22;721;48.168;12.818;2023-06-14T04:09:57;13.00;1.00
1455;DHT22;721;48.168;12.818;2023-06-14T04:12:24;13.00;1.00
1455;DHT22;721;48.168;12.818;2023-06-14T04:14:51;13.00;1.00
1455;DHT22;721;48.168;12.818;2023-06-14T04:17:19;13.10;1.00
1455;DHT22;721;48.168;12.818;2023-06-14T04:19:46;13.20;1.00
1455;DHT22;721;48.168;12.818;2023-06-14T04:22:13;13.20;1.00
1455;DHT22;721;48.168;12.818;2023-06-14T04:24:39;13.20;1.00
1455;DHT22;721;48.168;12.818;2023-06-14T04:27:08;13.30;1.00
1455;DHT22;721;48.168;12.818;2023-06-14T04:29:34;13.40;1.00
1455;DHT22;721;48.168;12.818;2023-06-14T04:32:01;13.50;1.00
1455;DHT22;721;48.168;12.818;2023-06-14T04:34:29;13.60;1.00
1455;DHT22;721;48.168;12.818;2023-06-14T04:36:59;13.70;1.00
1455;DHT22;721;48.168;12.818;2023-06-14T04:39:27;13.80;1.00
1455;DHT22;721;48.168;12.818;2023-06-14T04:41:54;13.80;1.00
1455;DHT22;721;48.168;12.818;2023-06-14T04:44:23;13.80;1.00
1455;DHT22;721;48.168;12.818;2023-06-14T04:46:55;13.90;1.00
1455;DHT22;721;48.168;12.818;2023-06-14T04:49:24;13.90;1.00
1455;DHT22;721;48.168;12.818;2023-06-14T04:51:53;14.00;1.00
1455;DHT22;721;48.168;12.818;2023-06-14T04:54:23;14.10;1.00
1455;DHT22;721;48.168;12.818;2023-06-14T04:56:50;14.10;1.00
1455;DHT22;721;48.168;12.818;2023-06-14T04:59:17;14.10;1.00
1455;DHT22;721;48.168;12.818;2023-06-14T05:01:44;14.20;1.00
1455;DHT22;721;48.168;12.818;2023-06-14T05:04:13;14.30;1.00
1455;DHT22;721;48.168;12.818;2023-06-14T05:06:41;14.20;1.00
1455;DHT22;721;48.168;12.818;2023-06-14T05:09:12;14.40;1.00
1455;DHT22;721;48.168;12.818;2023-06-14T05:11:38;14.40;1.00
1455;DHT22;721;48.168;12.818;2023-06-14T05:14:05;14.40;1.00
1455;DHT22;721;48.168;12.818;2023-06-14T05:16:32;14.50;1.00
1455;DHT22;721;48.168;12.818;2023-06-14T05:18:59;14.60;1.00
1455;DHT22;721;48.168;12.818;2023-06-14T05:21:26;14.70;1.00
1455;DHT22;721;48.168;12.818;2023-06-14T05:23:53;14.70;1.00
1455;DHT22;721;48.168;12.818;2023-06-14T05:26:22;14.80;1.00
1455;DHT22;721;48.168;12.818;2023-06-14T05:28:54;14.80;1.00
1455;DHT22;721;48.168;12.818;2023-06-14T05:31:22;15.20;1.00
1455;DHT22;721;48.168;12.818;2023-06-14T05:33:48;15.00;1.00
1455;DHT22;721;48.168;12.818;2023-06-14T05:36:15;15.10;1.00
1455;DHT22;721;48.168;12.818;2023-06-14T05:38:42;15.20;1.00
1455;DHT22;721;48.168;12.818;2023-06-14T05:41:09;15.40;1.00
1455;DHT22;721;48.168;12.818;2023-06-14T05:43:37;15.40;1.00
1455;DHT22;721;48.168;12.818;2023-06-14T05:46:04;15.50;1.00
1455;DHT22;721;48.168;12.818;2023-06-14T05:48:30;15.80;1.00
1455;DHT22;721;48.168;12.818;2023-06-14T05:50:58;15.80;1.00
1455;DHT22;721;48.168;12.818;2023-06-14T05:53:25;16.30;1.00
1455;DHT22;721;48.168;12.818;2023-06-14T05:55:52;15.90;1.00
1455;DHT22;721;48.168;12.818;2023-06-14T05:58:20;16.10;1.00
1455;DHT22;721;48.168;12.818;2023-06-14T06:00:48;16.10;1.00
1455;DHT22;721;48.168;12.818;2023-06-14T06:03:16;16.30;1.00
1455;DHT22;721;48.168;12.818;2023-06-14T06:05:43;16.40;1.00
1455;DHT22;721;48.168;12.818;2023-06-14T06:08:09;16.50;1.00
1455;DHT22;721;48.168;12.818;2023-06-14T06:10:36;16.70;1.00
1455;DHT22;721;48.168;12.818;2023-06-14T06:13:03;16.70;1.00
1455;DHT22;721;48.168;12.818;2023-06-14T06:15:30;16.80;1.00
1455;DHT22;721;48.168;12.818;2023-06-14T06:17:58;16.80;1.00
1455;DHT22;721;48.168;12.818;2023-06-14T06:20:25;17.00;1.00
1455;DHT22;721;48.168;12.818;2023-06-14T06:22:53;17.00;1.00
1455;DHT22;721;48.168;12.818;2023-06-14T06:25:20;17.00;1.00
1455;DHT22;721;48.168;12.818;2023-06-14T06:27:47;17.00;1.00
1455;DHT22;721;48.168;12.818;2023-06-14T06:30:16;17.00;1.00
1455;DHT22;721;48.168;12.818;2023-06-14T06:32:42;17.00;1.00
1455;DHT22;721;48.168;12.818;2023-06-14T06:35:11;17.20;1.00
1455;DHT22;721;48.168;12.818;2023-06-14T06:37:38;17.40;1.00
1455;DHT22;721;48.168;12.818;2023-06-14T06:40:06;17.60;1.00
1455;DHT22;721;48.168;12.818;2023-06-14T06:42:34;17.70;1.00
1455;DHT22;721;48.168;12.818;2023-06-14T06:45:01;17.60;1.00
1455;DHT22;721;48.168;12.818;2023-06-14T06:47:28;17.80;1.00
1455;DHT22;721;48.168;12.818;2023-06-14T06:49:55;17.90;1.00
1455;DHT22;721;48.168;12.818;2023-06-14T06:52:23;18.00;1.00
1455;DHT22;721;48.168;12.818;2023-06-14T06:54:50;18.10;1.00
1455;DHT22;721;48.168;12.818;2023-06-14T06:57:20;18.10;1.00
1455;DHT22;721;48.168;12.818;2023-06-14T06:59:48;18.10;1.00
1455;DHT22;721;48.168;12.818;2023-06-14T07:02:15;18.30;1.00
1455;DHT22;721;48.168;12.818;2023-06-14T07:04:41;18.40;1.00
1455;DHT22;721;48.168;12.818;2023-06-14T07:07:08;18.40;1.00
1455;DHT22;721;48.168;12.818;2023-06-14T07:09:37;18.60;1.00
1455;DHT22;721;48.168;12.818;2023-06-14T07:12:04;18.80;1.00
1455;DHT22;721;48.168;12.818;2023-06-14T07:14:32;18.70;1.00
1455;DHT22;721;48.168;12.818;2023-06-14T07:16:59;18.80;1.00
1455;DHT22;721;48.168;12.818;2023-06-14T07:19:25;18.90;1.00
1455;DHT22;721;48.168;12.818;2023-06-14T07:21:52;18.80;1.00
1455;DHT22;721;48.168;12.818;2023-06-14T07:24:19;18.90;1.00
1455;DHT22;721;48.168;12.818;2023-06-14T07:26:48;19.00;1.00
1455;DHT22;721;48.168;12.818;2023-06-14T07:29:15;19.20;1.00
1455;DHT22;721;48.168;12.818;2023-06-14T07:31:42;19.30;1.00
1455;DHT22;721;48.168;12.818;2023-06-14T07:34:09;19.30;1.00
1455;DHT22;721;48.168;12.818;2023-06-14T07:36:36;19.40;1.00
1455;DHT22;721;48.168;12.818;2023-06-14T07:39:03;19.60;1.00
1455;DHT22;721;48.168;12.818;2023-06-14T07:41:32;19.70;1.00
1455;DHT22;721;48.168;12.818;2023-06-14T07:44:00;19.70;1.00
1455;DHT22;721;48.168;12.818;2023-06-14T07:46:26;19.90;1.00
1455;DHT22;721;48.168;12.818;2023-06-14T07:48:53;19.90;1.00
1455;DHT22;721;48.168;12.818;2023-06-14T07:51:20;20.00;1.00
1455;DHT22;721;48.168;12.818;2023-06-14T07:53:48;20.20;1.00
1455;DHT22;721;48.168;12.818;2023-06-14T07:56:15;20.20;1.00
1455;DHT22;721;48.168;12.818;2023-06-14T07:58:41;20.30;1.00
1455;DHT22;721;48.168;12.818;2023-06-14T08:01:10;20.30;1.00
1455;DHT22;721;48.168;12.818;2023-06-14T08:03:37;20.30;1.00
1455;DHT22;721;48.168;12.818;2023-06-14T08:06:03;20.40;1.00
1455;DHT22;721;48.168;12.818;2023-06-14T08:08:31;20.60;1.00
1455;DHT22;721;48.168;12.818;2023-06-14T08:10:58;20.70;1.00
1455;DHT22;721;48.168;12.818;2023-06-14T08:13:25;20.80;1.00
1455;DHT22;721;48.168;12.818;2023-06-14T08:15:52;21.00;1.00
1455;DHT22;721;48.168;12.818;2023-06-14T08:18:20;21.10;1.00
1455;DHT22;721;48.168;12.818;2023-06-14T08:20:46;21.30;1.00
1455;DHT22;721;48.168;12.818;2023-06-14T08:23:13;21.40;1.00
1455;DHT22;721;48.168;12.818;2023-06-14T08:25:41;21.50;1.00
1455;DHT22;721;48.168;12.818;2023-06-14T08:28:08;21.50;1.00
1455;DHT22;721;48.168;12.818;2023-06-14T08:30:34;21.60;1.00
1455;DHT22;721;48.168;12.818;2023-06-14T08:33:01;21.60;1.00
1455;DHT22;721;48.168;12.818;2023-06-14T08:35:29;21.60;1.00
1455;DHT22;721;48.168;12.818;2023-06-14T08:37:56;21.50;1.00
1455;DHT22;721;48.168;12.818;2023-06-14T08:40:23;21.70;1.00
1455;DHT22;721;48.168;12.818;2023-06-14T08:42:51;21.80;1.00
1455;DHT22;721;48.168;12.818;2023-06-14T08:45:19;21.70;1.00
1455;DHT22;721;48.168;12.818;2023-06-14T08:47:47;21.70;1.00
1455;DHT22;721;48.168;12.818;2023-06-14T08:50:19;21.80;1.00
1455;DHT22;721;48.168;12.818;2023-06-14T08:52:48;21.80;1.00
1455;DHT22;721;48.168;12.818;2023-06-14T08:55:18;21.90;1.00
1455;DHT22;721;48.168;12.818;2023-06-14T08:57:46;21.90;1.00
1455;DHT22;721;48.168;12.818;2023-06-14T09:00:15;21.90;1.00
1455;DHT22;721;48.168;12.818;2023-06-14T09:02:42;22.10;1.00
1455;DHT22;721;48.168;12.818;2023-06-14T09:05:10;22.10;1.00
1455;DHT22;721;48.168;12.818;2023-06-14T09:07:39;22.10;1.00
1455;DHT22;721;48.168;12.818;2023-06-14T09:10:10;21.90;1.00
1455;DHT22;721;48.168;12.818;2023-06-14T09:12:37;22.00;1.00
1455;DHT22;721;48.168;12.818;2023-06-14T09:15:06;22.10;1.00
1455;DHT22;721;48.168;12.818;2023-06-14T09:17:34;22.20;1.00
1455;DHT22;721;48.168;12.818;2023-06-14T09:20:02;22.20;1.00
1455;DHT22;721;48.168;12.818;2023-06-14T09:22:31;22.40;1.00
1455;DHT22;721;48.168;12.818;2023-06-14T09:24:59;22.50;1.00
1455;DHT22;721;48.168;12.818;2023-06-14T09:27:27;22.60;1.00
1455;DHT22;721;48.168;12.818;2023-06-14T09:29:54;22.80;1.00
1455;DHT22;721;48.168;12.818;2023-06-14T09:32:21;22.80;1.00
1455;DHT22;721;48.168;12.818;2023-06-14T09:34:48;22.90;1.00
1455;DHT22;721;48.168;12.818;2023-06-14T09:37:27;22.80;1.00
1455;DHT22;721;48.168;12.818;2023-06-14T09:39:55;22.90;1.00
1455;DHT22;721;48.168;12.818;2023-06-14T09:42:22;22.90;1.00
1455;DHT22;721;48.168;12.818;2023-06-14T09:44:53;23.10;1.00
1455;DHT22;721;48.168;12.818;2023-06-14T09:47:21;23.10;1.00
1455;DHT22;721;48.168;12.818;2023-06-14T09:49:48;23.10;1.00
1455;DHT22;721;48.168;12.818;2023-06-14T09:52:17;23.30;1.00
1455;DHT22;721;48.168;12.818;2023-06-14T09:54:45;23.30;1.00
1455;DHT22;721;48.168;12.818;2023-06-14T09:57:14;23.40;1.00
1455;DHT22;721;48.168;12.818;2023-06-14T09:59:42;23.30;1.00
1455;DHT22;721;48.168;12.818;2023-06-14T10:02:24;23.30;1.00
1455;DHT22;721;48.168;12.818;2023-06-14T10:04:57;23.40;1.00
1455;DHT22;721;48.168;12.818;2023-06-14T10:07:26;23.60;1.00
1455;DHT22;721;48.168;12.818;2023-06-14T10:09:57;23.40;1.00
1455;DHT22;721;48.168;12.818;2023-06-14T10:12:25;23.40;1.00
1455;DHT22;721;48.168;12.818;2023-06-14T10:14:52;23.60;1.00
1455;DHT22;721;48.168;12.818;2023-06-14T10:17:30;23.60;1.00
1455;DHT22;721;48.168;12.818;2023-06-14T10:20:11;23.60;1.00
1455;DHT22;721;48.168;12.818;2023-06-14T10:22:44;23.50;1.00
1455;DHT22;721;48.168;12.818;2023-06-14T10:25:26;23.40;1.00
1455;DHT22;721;48.168;12.818;2023-06-14T10:27:53;23.50;1.00
1455;DHT22;721;48.168;12.818;2023-06-14T10:30:25;23.40;1.00
1455;DHT22;721;48.168;12.818;2023-06-14T10:33:06;23.50;1.00
1455;DHT22;721;48.168;12.818;2023-06-14T10:35:33;23.70;1.00
1455;DHT22;721;48.168;12.818;2023-06-14T10:38:07;23.80;1.00
1455;DHT22;721;48.168;12.818;2023-06-14T10:40:34;24.00;1.00
1455;DHT22;721;48.168;12.818;2023-06-14T10:43:21;24.10;1.00
1455;DHT22;721;48.168;12.818;2023-06-14T10:46:14;24.30;1.00
1455;DHT22;721;48.168;12.818;2023-06-14T10:48:42;24.20;1.00
1455;DHT22;721;48.168;12.818;2023-06-14T10:51:16;24.10;1.00
1455;DHT22;721;48.168;12.818;2023-06-14T10:53:46;24.10;1.00
1455;DHT22;721;48.168;12.818;2023-06-14T10:56:24;24.10;1.00
1455;DHT22;721;48.168;12.818;2023-06-14T10:58:53;24.20;1.00
1455;DHT22;721;48.168;12.818;2023-06-14T11:01:31;24.50;1.00
1455;DHT22;721;48.168;12.818;2023-06-14T11:04:07;24.50;1.00
1455;DHT22;721;48.168;12.818;2023-06-14T11:06:45;24.50;1.00
1455;DHT22;721;48.168;12.818;2023-06-14T11:09:45;24.70;1.00
1455;DHT22;721;48.168;12.818;2023-06-14T11:12:21;24.70;1.00
1455;DHT22;721;48.168;12.818;2023-06-14T11:14:48;24.80;1.00
1455;DHT22;721;48.168;12.818;2023-06-14T11:17:15;24.90;1.00
1455;DHT22;721;48.168;12.818;2023-06-14T11:19:44;24.90;1.00
1455;DHT22;721;48.168;12.818;2023-06-14T11:22:10;24.70;1.00
1455;DHT22;721;48.168;12.818;2023-06-14T11:24:40;24.80;1.00
1455;DHT22;721;48.168;12.818;2023-06-14T11:27:07;25.00;1.00
1455;DHT22;721;48.168;12.818;2023-06-14T11:29:34;25.30;1.00
1455;DHT22;721;48.168;12.818;2023-06-14T11:32:01;25.20;1.00
1455;DHT22;721;48.168;12.818;2023-06-14T11:34:27;25.30;1.00
1455;DHT22;721;48.168;12.818;2023-06-14T11:36:56;25.40;1.00
1455;DHT22;721;48.168;12.818;2023-06-14T11:39:24;25.20;1.00
1455;DHT22;721;48.168;12.818;2023-06-14T11:41:52;25.40;1.00
1455;DHT22;721;48.168;12.818;2023-06-14T11:44:20;25.70;1.00
1455;DHT22;721;48.168;12.818;2023-06-14T11:46:47;25.60;1.00
1455;DHT22;721;48.168;12.818;2023-06-14T11:49:16;25.60;1.00
1455;DHT22;721;48.168;12.818;2023-06-14T11:51:43;25.70;1.00
1455;DHT22;721;48.168;12.818;2023-06-14T11:54:12;25.80;1.00
1455;DHT22;721;48.168;12.818;2023-06-14T11:56:39;25.90;1.00
1455;DHT22;721;48.168;12.818;2023-06-14T11:59:05;26.00;1.00
1455;DHT22;721;48.168;12.818;2023-06-14T12:01:35;25.90;1.00
1455;DHT22;721;48.168;12.818;2023-06-14T12:04:03;26.10;1.00
1455;DHT22;721;48.168;12.818;2023-06-14T12:06:31;25.80;1.00
1455;DHT22;721;48.168;12.818;2023-06-14T12:09:03;25.90;1.00
1455;DHT22;721;48.168;12.818;2023-06-14T12:11:35;25.90;1.00
1455;DHT22;721;48.168;12.818;2023-06-14T12:14:03;25.90;1.00
1455;DHT22;721;48.168;12.818;2023-06-14T12:16:31;26.10;1.00
1455;DHT22;721;48.168;12.818;2023-06-14T12:19:01;26.00;1.00
1455;DHT22;721;48.168;12.818;2023-06-14T12:21:28;26.20;1.00
1455;DHT22;721;48.168;12.818;2023-06-14T12:23:55;26.10;1.00
1455;DHT22;721;48.168;12.818;2023-06-14T12:26:24;26.30;1.00
1455;DHT22;721;48.168;12.818;2023-06-14T12:28:53;26.30;1.00
1455;DHT22;721;48.168;12.818;2023-06-14T12:31:20;26.40;1.00
1455;DHT22;721;48.168;12.818;2023-06-14T12:33:47;26.20;1.00
1455;DHT22;721;48.168;12.818;2023-06-14T12:36:15;26.40;1.00
1455;DHT22;721;48.168;12.818;2023-06-14T12:38:42;26.50;1.00
1455;DHT22;721;48.168;12.818;2023-06-14T12:41:11;26.60;1.00
1455;DHT22;721;48.168;12.818;2023-06-14T12:43:39;26.60;1.00
1455;DHT22;721;48.168;12.818;2023-06-14T12:46:07;26.80;1.00
1455;DHT22;721;48.168;12.818;2023-06-14T12:48:34;26.80;1.00
1455;DHT22;721;48.168;12.818;2023-06-14T12:51:01;26.90;1.00
1455;DHT22;721;48.168;12.818;2023-06-14T12:53:28;26.80;1.00
1455;DHT22;721;48.168;12.818;2023-06-14T12:55:54;26.80;1.00
1455;DHT22;721;48.168;12.818;2023-06-14T12:58:21;26.70;1.00
1455;DHT22;721;48.168;12.818;2023-06-14T13:00:49;26.70;1.00
1455;DHT22;721;48.168;12.818;2023-06-14T13:03:17;26.70;1.00
1455;DHT22;721;48.168;12.818;2023-06-14T13:05:44;26.60;1.00
1455;DHT22;721;48.168;12.818;2023-06-14T13:08:11;26.80;1.00
1455;DHT22;721;48.168;12.818;2023-06-14T13:10:38;26.90;1.00
1455;DHT22;721;48.168;12.818;2023-06-14T13:13:05;26.90;1.00
1455;DHT22;721;48.168;12.818;2023-06-14T13:15:33;26.90;1.00
1455;DHT22;721;48.168;12.818;2023-06-14T13:18:00;27.00;1.00
1455;DHT22;721;48.168;12.818;2023-06-14T13:20:29;27.00;1.00
1455;DHT22;721;48.168;12.818;2023-06-14T13:22:56;27.00;1.00
1455;DHT22;721;48.168;12.818;2023-06-14T13:25:23;27.30;1.00
1455;DHT22;721;48.168;12.818;2023-06-14T13:27:50;27.20;1.00
1455;DHT22;721;48.168;12.818;2023-06-14T13:30:17;27.10;1.00
1455;DHT22;721;48.168;12.818;2023-06-14T13:32:44;27.30;1.00
1455;DHT22;721;48.168;12.818;2023-06-14T13:35:10;27.30;1.00
1455;DHT22;721;48.168;12.818;2023-06-14T13:37:39;27.40;1.00
1455;DHT22;721;48.168;12.818;2023-06-14T13:40:07;27.60;1.00
1455;DHT22;721;48.168;12.818;2023-06-14T13:42:33;27.60;1.00
1455;DHT22;721;48.168;12.818;2023-06-14T13:45:01;27.60;1.00
1455;DHT22;721;48.168;12.818;2023-06-14T13:47:28;27.40;1.00
1455;DHT22;721;48.168;12.818;2023-06-14T13:49:55;27.20;1.00
1455;DHT22;721;48.168;12.818;2023-06-14T13:52:22;27.30;1.00
1455;DHT22;721;48.168;12.818;2023-06-14T13:54:50;27.30;1.00
1455;DHT22;721;48.168;12.818;2023-06-14T13:57:17;27.40;1.00
1455;DHT22;721;48.168;12.818;2023-06-14T13:59:44;27.10;1.00
1455;DHT22;721;48.168;12.818;2023-06-14T14:02:11;26.90;1.00
1455;DHT22;721;48.168;12.818;2023-06-14T14:04:39;26.90;1.00
1455;DHT22;721;48.168;12.818;2023-06-14T14:07:07;27.10;1.00
1455;DHT22;721;48.168;12.818;2023-06-14T14:09:33;27.00;1.00
1455;DHT22;721;48.168;12.818;2023-06-14T14:12:02;27.00;1.00
1455;DHT22;721;48.168;12.818;2023-06-14T14:14:30;26.50;1.00
1455;DHT22;721;48.168;12.818;2023-06-14T14:16:57;26.50;1.00
1455;DHT22;721;48.168;12.818;2023-06-14T14:19:24;26.50;1.00
1455;DHT22;721;48.168;12.818;2023-06-14T14:21:51;26.50;1.00
1455;DHT22;721;48.168;12.818;2023-06-14T14:24:19;26.30;1.00
1455;DHT22;721;48.168;12.818;2023-06-14T14:26:45;26.10;1.00
1455;DHT22;721;48.168;12.818;2023-06-14T14:29:15;25.80;1.00
1455;DHT22;721;48.168;12.818;2023-06-14T14:31:42;25.60;1.00
1455;DHT22;721;48.168;12.818;2023-06-14T14:34:09;25.60;1.00
1455;DHT22;721;48.168;12.818;2023-06-14T14:36:35;26.00;1.00
1455;DHT22;721;48.168;12.818;2023-06-14T14:39:03;26.00;1.00
1455;DHT22;721;48.168;12.818;2023-06-14T14:41:30;26.10;1.00
1455;DHT22;721;48.168;12.818;2023-06-14T14:43:56;26.30;1.00
1455;DHT22;721;48.168;12.818;2023-06-14T14:46:26;26.30;1.00
1455;DHT22;721;48.168;12.818;2023-06-14T14:48:53;26.30;1.00
1455;DHT22;721;48.168;12.818;2023-06-14T14:51:20;26.60;1.00
1455;DHT22;721;48.168;12.818;2023-06-14T14:53:46;27.00;1.00
1455;DHT22;721;48.168;12.818;2023-06-14T14:56:13;27.30;1.00
1455;DHT22;721;48.168;12.818;2023-06-14T14:58:40;27.30;1.00
1455;DHT22;721;48.168;12.818;2023-06-14T15:01:07;27.60;1.00
1455;DHT22;721;48.168;12.818;2023-06-14T15:03:35;27.80;1.00
1455;DHT22;721;48.168;12.818;2023-06-14T15:06:02;27.90;1.00
1455;DHT22;721;48.168;12.818;2023-06-14T15:08:28;27.60;1.00
1455;DHT22;721;48.168;12.818;2023-06-14T15:10:55;27.60;1.00
1455;DHT22;721;48.168;12.818;2023-06-14T15:13:22;27.80;1.00
1455;DHT22;721;48.168;12.818;2023-06-14T15:15:49;28.00;1.00
1455;DHT22;721;48.168;12.818;2023-06-14T15:18:16;28.20;1.00
1455;DHT22;721;48.168;12.818;2023-06-14T15:20:47;28.20;1.00
1455;DHT22;721;48.168;12.818;2023-06-14T15:23:14;28.10;1.00
1455;DHT22;721;48.168;12.818;2023-06-14T15:25:45;28.00;1.00
1455;DHT22;721;48.168;12.818;2023-06-14T15:28:13;28.10;1.00
1455;DHT22;721;48.168;12.818;2023-06-14T15:30:40;28.30;1.00
1455;DHT22;721;48.168;12.818;2023-06-14T15:33:07;27.90;1.00
1455;DHT22;721;48.168;12.818;2023-06-14T15:35:33;27.50;1.00
1455;DHT22;721;48.168;12.818;2023-06-14T15:38:02;27.40;1.00
1455;DHT22;721;48.168;12.818;2023-06-14T15:40:28;26.90;1.00
1455;DHT22;721;48.168;12.818;2023-06-14T15:42:55;26.90;1.00
1455;DHT22;721;48.168;12.818;2023-06-14T15:45:22;26.80;1.00
1455;DHT22;721;48.168;12.818;2023-06-14T15:47:49;27.00;1.00
1455;DHT22;721;48.168;12.818;2023-06-14T15:50:15;27.00;1.00
1455;DHT22;721;48.168;12.818;2023-06-14T15:52:42;27.20;1.00
1455;DHT22;721;48.168;12.818;2023-06-14T15:55:10;27.30;1.00
1455;DHT22;721;48.168;12.818;2023-06-14T15:57:37;27.40;1.00
1455;DHT22;721;48.168;12.818;2023-06-14T16:00:05;27.70;1.00
1455;DHT22;721;48.168;12.818;2023-06-14T16:02:32;27.90;1.00
1455;DHT22;721;48.168;12.818;2023-06-14T16:04:59;28.20;1.00
1455;DHT22;721;48.168;12.818;2023-06-14T16:07:25;28.10;1.00
1455;DHT22;721;48.168;12.818;2023-06-14T16:09:52;27.60;1.00
1455;DHT22;721;48.168;12.818;2023-06-14T16:12:20;27.10;1.00
1455;DHT22;721;48.168;12.818;2023-06-14T16:14:47;26.80;1.00
1455;DHT22;721;48.168;12.818;2023-06-14T16:17:14;26.30;1.00
1455;DHT22;721;48.168;12.818;2023-06-14T16:19:41;25.60;1.00
1455;DHT22;721;48.168;12.818;2023-06-14T16:22:08;25.30;1.00